createdAt,value
2017-10-06T08:29:14.810Z,-40.00
2017-10-06T08:30:15.443Z,12.50
2017-10-06T08:31:16.075Z,12.79
2017-10-06T08:32:16.705Z,12.58
2017-10-06T08:33:17.338Z,12.42
2017-10-06T08:34:17.969Z,12.61
2017-10-06T08:35:18.602Z,12.93
2017-10-06T08:36:19.233Z,13.09
2017-10-06T08:37:19.864Z,13.11
2017-10-06T08:38:20.511Z,13.03
2017-10-06T08:39:21.140Z,13.04
2017-10-06T08:40:21.771Z,12.93
2017-10-06T08:41:22.402Z,12.87
2017-10-06T08:42:23.036Z,12.79
2017-10-06T08:43:23.672Z,12.72
2017-10-06T08:44:24.302Z,12.70
2017-10-06T08:45:24.934Z,12.78
2017-10-06T08:46:25.575Z,12.97
2017-10-06T08:47:26.203Z,12.82
2017-10-06T08:48:26.841Z,12.82
2017-10-06T08:49:27.780Z,12.72
2017-10-06T08:50:28.421Z,12.60
2017-10-06T08:51:29.052Z,12.60
2017-10-06T08:52:29.686Z,12.68
2017-10-06T08:53:30.316Z,12.67
2017-10-06T08:54:31.196Z,12.68
2017-10-06T08:55:31.835Z,12.50
2017-10-06T08:56:32.468Z,12.60
2017-10-06T08:57:33.096Z,12.65
2017-10-06T08:58:33.727Z,12.75
2017-10-06T08:59:34.357Z,12.75
2017-10-06T09:00:34.986Z,12.90
2017-10-06T09:01:35.620Z,12.94
2017-10-06T09:02:36.252Z,12.97
2017-10-06T09:03:36.885Z,13.08
2017-10-06T09:04:37.516Z,13.18
2017-10-06T09:05:38.158Z,13.08
2017-10-06T09:06:38.788Z,13.03
2017-10-06T09:07:39.419Z,13.11
2017-10-06T09:08:40.054Z,13.27
2017-10-06T09:09:40.684Z,13.22
2017-10-06T09:10:41.318Z,13.22
2017-10-06T09:11:41.952Z,13.25
2017-10-06T09:12:42.590Z,13.16
2017-10-06T09:13:43.220Z,13.20
2017-10-06T09:14:43.855Z,13.28
2017-10-06T09:15:44.485Z,13.16
2017-10-06T09:16:45.120Z,13.27
2017-10-06T09:17:45.748Z,12.94
2017-10-06T09:18:46.380Z,12.85
2017-10-06T09:19:47.013Z,12.94
2017-10-06T09:20:47.639Z,13.20
2017-10-06T09:21:48.275Z,13.25
2017-10-06T09:22:48.917Z,13.30
2017-10-06T09:23:49.544Z,13.50
2017-10-06T09:24:50.184Z,13.53
2017-10-06T09:25:50.815Z,13.72
2017-10-06T09:26:51.579Z,13.85
2017-10-06T09:27:52.218Z,13.99
2017-10-06T09:28:52.851Z,13.81
2017-10-06T09:29:53.743Z,13.85
2017-10-06T09:30:54.388Z,14.05
2017-10-06T09:31:55.025Z,13.89
2017-10-06T09:32:55.657Z,13.67
2017-10-06T09:33:56.287Z,13.74
2017-10-06T09:34:57.157Z,13.49
2017-10-06T09:35:57.863Z,13.60
2017-10-06T09:36:58.496Z,13.47
2017-10-06T09:37:59.127Z,13.38
2017-10-06T09:38:59.759Z,13.52
2017-10-06T09:40:00.395Z,13.42
2017-10-06T09:41:01.039Z,13.47
2017-10-06T09:42:01.676Z,13.46
2017-10-06T09:43:02.309Z,13.49
2017-10-06T09:44:02.941Z,13.38
2017-10-06T09:45:03.575Z,13.25
2017-10-06T09:46:04.220Z,13.39
2017-10-06T09:47:04.861Z,13.39
2017-10-06T09:48:05.496Z,13.54
2017-10-06T09:49:06.127Z,13.50
2017-10-06T09:50:06.759Z,13.56
2017-10-06T09:51:07.392Z,13.68
2017-10-06T09:52:08.023Z,13.75
2017-10-06T09:53:08.656Z,13.56
2017-10-06T09:54:09.293Z,13.46
2017-10-06T09:55:09.930Z,13.53
2017-10-06T09:56:10.561Z,13.63
2017-10-06T09:57:11.194Z,13.63
2017-10-06T09:58:11.820Z,13.52
2017-10-06T09:59:12.459Z,13.67
2017-10-06T10:00:13.089Z,13.65
2017-10-06T10:01:13.724Z,13.41
2017-10-06T10:02:14.358Z,13.60
2017-10-06T10:03:14.996Z,13.41
2017-10-06T10:04:15.624Z,13.62
2017-10-06T10:05:16.508Z,13.63
2017-10-06T10:06:17.139Z,13.78
2017-10-06T10:07:17.767Z,13.44
2017-10-06T10:08:18.398Z,13.62
2017-10-06T10:09:19.028Z,13.56
2017-10-06T10:10:19.658Z,13.60
2017-10-06T10:11:20.291Z,13.27
2017-10-06T10:12:20.924Z,13.05
2017-10-06T10:13:21.657Z,13.08
2017-10-06T10:14:22.286Z,13.23
2017-10-06T10:15:22.921Z,13.30
2017-10-06T10:16:23.554Z,13.08
2017-10-06T10:17:24.185Z,13.25
2017-10-06T10:18:24.824Z,13.27
2017-10-06T10:19:25.456Z,13.30
2017-10-06T10:20:26.384Z,13.38
2017-10-06T10:21:27.017Z,13.50
2017-10-06T10:22:27.667Z,13.81
2017-10-06T10:23:28.307Z,13.86
2017-10-06T10:24:28.935Z,14.26
2017-10-06T10:25:29.565Z,14.22
2017-10-06T10:26:30.193Z,14.07
2017-10-06T10:27:30.839Z,14.14
2017-10-06T10:28:31.470Z,14.10
2017-10-06T10:29:32.101Z,14.30
2017-10-06T10:30:32.734Z,14.25
2017-10-06T10:31:33.373Z,14.51
2017-10-06T10:32:34.010Z,14.48
2017-10-06T10:33:34.640Z,14.44
2017-10-06T10:34:35.272Z,14.43
2017-10-06T10:35:35.916Z,14.53
2017-10-06T10:36:36.544Z,14.41
2017-10-06T10:37:37.179Z,14.44
2017-10-06T10:38:37.811Z,14.51
2017-10-06T10:39:38.447Z,14.94
2017-10-06T10:40:39.081Z,14.68
2017-10-06T10:41:39.731Z,14.88
2017-10-06T10:42:40.359Z,14.92
2017-10-06T10:43:40.993Z,14.89
2017-10-06T10:44:41.623Z,14.69
2017-10-06T10:45:42.254Z,14.78
2017-10-06T10:46:42.889Z,15.06
2017-10-06T10:47:43.531Z,15.27
2017-10-06T10:48:44.171Z,15.25
2017-10-06T10:49:44.807Z,15.43
2017-10-06T10:50:45.687Z,15.51
2017-10-06T10:51:46.316Z,14.82
2017-10-06T10:52:46.957Z,14.94
2017-10-06T10:53:47.588Z,14.77
2017-10-06T10:54:48.230Z,14.70
2017-10-06T10:55:48.860Z,14.68
2017-10-06T10:56:49.495Z,14.43
2017-10-06T10:57:50.131Z,14.79
2017-10-06T10:58:50.767Z,14.89
2017-10-06T10:59:51.398Z,15.02
2017-10-06T11:00:52.286Z,15.18
2017-10-06T11:01:52.918Z,15.35
2017-10-06T11:02:53.550Z,15.29
2017-10-06T11:03:54.194Z,15.03
2017-10-06T11:04:54.825Z,14.92
2017-10-06T11:05:55.460Z,15.06
2017-10-06T11:06:56.094Z,15.61
2017-10-06T11:07:56.725Z,15.76
2017-10-06T11:08:57.362Z,15.83
2017-10-06T11:09:57.993Z,15.97
2017-10-06T11:10:58.879Z,15.83
2017-10-06T11:11:59.511Z,15.61
2017-10-06T11:13:00.202Z,15.68
2017-10-06T11:14:00.837Z,15.62
2017-10-06T11:15:01.477Z,15.51
2017-10-06T11:16:02.164Z,15.46
2017-10-06T11:17:02.797Z,15.44
2017-10-06T11:18:03.428Z,15.21
2017-10-06T11:19:04.065Z,15.04
2017-10-06T11:20:04.700Z,14.92
2017-10-06T11:21:05.331Z,15.15
2017-10-06T11:22:05.962Z,15.10
2017-10-06T11:23:06.591Z,15.02
2017-10-06T11:24:07.228Z,15.00
2017-10-06T11:25:07.860Z,14.89
2017-10-06T11:26:08.501Z,15.04
2017-10-06T11:27:09.138Z,15.14
2017-10-06T11:28:09.771Z,15.10
2017-10-06T11:29:10.404Z,14.85
2017-10-06T11:30:11.034Z,14.66
2017-10-06T11:31:11.675Z,14.84
2017-10-06T11:32:12.300Z,15.04
2017-10-06T11:33:12.929Z,15.03
2017-10-06T11:34:13.563Z,15.36
2017-10-06T11:35:14.195Z,15.27
2017-10-06T11:36:14.837Z,15.11
2017-10-06T11:37:15.477Z,15.02
2017-10-06T11:38:16.127Z,14.63
2017-10-06T11:39:16.765Z,14.91
2017-10-06T11:40:17.397Z,15.06
2017-10-06T11:41:18.031Z,15.14
2017-10-06T11:42:18.662Z,15.09
2017-10-06T11:43:19.296Z,15.39
2017-10-06T11:44:19.934Z,15.58
2017-10-06T11:45:20.567Z,15.73
2017-10-06T11:46:21.200Z,16.05
2017-10-06T11:47:21.841Z,16.20
2017-10-06T11:48:22.475Z,16.21
2017-10-06T11:49:23.105Z,16.23
2017-10-06T11:50:23.735Z,16.04
2017-10-06T11:51:24.370Z,15.91
2017-10-06T11:52:25.025Z,15.51
2017-10-06T11:53:25.703Z,15.25
2017-10-06T11:54:26.339Z,15.40
2017-10-06T11:55:26.969Z,14.97
2017-10-06T11:56:27.906Z,15.04
2017-10-06T11:57:28.557Z,15.00
2017-10-06T11:58:29.172Z,15.09
2017-10-06T11:59:29.805Z,15.25
2017-10-06T12:00:30.466Z,15.46
2017-10-06T12:01:31.450Z,15.35
2017-10-06T12:02:32.087Z,15.35
2017-10-06T12:03:32.718Z,15.10
2017-10-06T12:04:33.354Z,15.04
2017-10-06T12:05:33.986Z,15.27
2017-10-06T12:06:34.620Z,15.11
2017-10-06T12:07:35.256Z,14.91
2017-10-06T12:08:35.898Z,15.04
2017-10-06T12:09:36.529Z,15.11
2017-10-06T12:10:37.162Z,14.91
2017-10-06T12:11:37.801Z,14.77
2017-10-06T12:12:38.434Z,14.66
2017-10-06T12:13:39.083Z,14.73
2017-10-06T12:14:39.727Z,14.63
2017-10-06T12:15:40.367Z,14.51
2017-10-06T12:16:41.006Z,14.58
2017-10-06T12:17:41.636Z,14.50
2017-10-06T12:18:42.288Z,14.44
2017-10-06T12:19:42.897Z,14.07
2017-10-06T12:20:43.543Z,14.10
2017-10-06T12:21:44.174Z,14.00
2017-10-06T12:22:44.805Z,14.22
2017-10-06T12:23:45.459Z,14.22
2017-10-06T12:24:46.089Z,14.07
2017-10-06T12:25:46.746Z,14.22
2017-10-06T12:26:47.661Z,14.25
2017-10-06T12:27:48.305Z,14.30
2017-10-06T12:28:48.949Z,14.29
2017-10-06T12:29:49.577Z,14.29
2017-10-06T12:30:50.225Z,13.70
2017-10-06T12:31:51.091Z,13.78
2017-10-06T12:32:51.732Z,13.77
2017-10-06T12:33:52.368Z,13.85
2017-10-06T12:34:53.001Z,13.83
2017-10-06T12:35:53.633Z,13.78
2017-10-06T12:36:54.529Z,13.78
2017-10-06T12:37:55.175Z,13.67
2017-10-06T12:38:55.807Z,13.59
2017-10-06T12:39:56.441Z,13.25
2017-10-06T12:40:57.077Z,13.03
2017-10-06T12:41:57.710Z,13.00
2017-10-06T12:42:58.352Z,12.78
2017-10-06T12:43:58.992Z,12.72
2017-10-06T12:44:59.629Z,12.40
2017-10-06T12:46:00.259Z,12.20
2017-10-06T12:47:00.896Z,11.86
2017-10-06T12:48:01.531Z,11.72
2017-10-06T12:49:02.161Z,11.65
2017-10-06T12:50:02.796Z,11.68
2017-10-06T12:51:03.427Z,11.65
2017-10-06T12:52:04.057Z,11.68
2017-10-06T12:53:04.689Z,11.48
2017-10-06T12:54:05.316Z,11.47
2017-10-06T12:55:05.944Z,11.59
2017-10-06T12:56:06.587Z,11.55
2017-10-06T12:57:07.218Z,11.40
2017-10-06T12:58:07.856Z,11.52
2017-10-06T12:59:08.503Z,11.63
2017-10-06T13:00:09.134Z,11.65
2017-10-06T13:01:09.764Z,11.62
2017-10-06T13:02:10.648Z,11.75
2017-10-06T13:03:11.289Z,11.94
2017-10-06T13:04:11.927Z,11.88
2017-10-06T13:05:12.559Z,12.02
2017-10-06T13:06:13.194Z,12.07
2017-10-06T13:07:13.826Z,12.37
2017-10-06T13:08:14.460Z,12.31
2017-10-06T13:09:15.094Z,12.50
2017-10-06T13:10:15.725Z,12.40
2017-10-06T13:11:16.357Z,12.50
2017-10-06T13:12:17.236Z,12.54
2017-10-06T13:13:17.881Z,12.53
2017-10-06T13:14:18.514Z,12.82
2017-10-06T13:15:19.147Z,13.44
2017-10-06T13:16:19.777Z,13.90
2017-10-06T13:17:20.335Z,14.96
2017-10-06T13:18:21.044Z,15.92
2017-10-06T13:19:21.684Z,16.99
2017-10-06T13:20:22.316Z,17.39
2017-10-06T13:21:22.949Z,18.19
2017-10-06T13:22:23.584Z,18.77
2017-10-06T13:23:24.223Z,19.24
2017-10-06T13:24:24.861Z,19.52
2017-10-06T13:25:25.495Z,19.39
2017-10-06T13:26:26.129Z,18.56
2017-10-06T13:27:26.758Z,19.49
2017-10-06T13:28:27.400Z,20.00
2017-10-06T13:29:28.043Z,21.43
2017-10-06T13:30:28.685Z,21.57
2017-10-06T13:31:29.317Z,22.43
2017-10-06T13:32:29.955Z,22.76
2017-10-06T13:33:30.590Z,24.42
2017-10-06T13:34:31.226Z,24.57
2017-10-06T13:35:31.941Z,22.43
2017-10-06T13:36:32.576Z,24.54
2017-10-06T13:37:33.215Z,25.53
2017-10-06T13:38:33.856Z,24.80
2017-10-06T13:39:34.494Z,23.05
2017-10-06T13:40:35.130Z,21.70
2017-10-06T13:41:35.771Z,20.26
2017-10-06T13:42:36.414Z,20.14
2017-10-06T13:43:37.048Z,20.48
2017-10-06T13:44:37.689Z,20.04
2017-10-06T13:45:38.325Z,21.18
2017-10-06T13:46:38.962Z,22.28
2017-10-06T13:47:39.599Z,23.17
2017-10-06T13:48:40.236Z,23.39
2017-10-06T13:49:40.872Z,23.10
2017-10-06T13:50:41.518Z,23.09
2017-10-06T13:51:42.151Z,21.69
2017-10-06T13:52:42.795Z,20.95
2017-10-06T13:53:43.429Z,21.32
2017-10-06T13:54:44.065Z,21.37
2017-10-06T13:55:44.707Z,20.74
2017-10-06T13:56:45.342Z,20.67
2017-10-06T13:57:45.977Z,20.44
2017-10-06T13:58:46.628Z,19.86
2017-10-06T13:59:47.265Z,20.26
2017-10-06T14:00:47.908Z,20.29
2017-10-06T14:01:48.559Z,19.55
2017-10-06T14:02:49.196Z,19.36
2017-10-06T14:03:49.833Z,18.96
2017-10-06T14:04:50.498Z,19.48
2017-10-06T14:05:51.133Z,19.71
2017-10-06T14:06:51.775Z,20.50
2017-10-06T14:07:52.418Z,20.90
2017-10-06T14:08:53.057Z,20.06
2017-10-06T14:09:53.710Z,19.85
2017-10-06T14:10:54.353Z,19.81
2017-10-06T14:11:54.977Z,19.12
2017-10-06T14:12:55.884Z,19.86
2017-10-06T14:13:56.521Z,20.26
2017-10-06T14:14:57.156Z,20.66
2017-10-06T14:15:57.795Z,20.07
2017-10-06T14:16:58.428Z,19.74
2017-10-06T14:17:59.070Z,19.52
2017-10-06T14:18:59.708Z,18.92
2017-10-06T14:20:00.343Z,19.19
2017-10-06T14:21:00.985Z,19.04
2017-10-06T14:22:01.626Z,18.60
2017-10-06T14:23:02.560Z,18.62
2017-10-06T14:24:03.195Z,18.89
2017-10-06T14:25:03.838Z,18.41
2017-10-06T14:26:04.474Z,18.86
2017-10-06T14:27:05.111Z,19.19
2017-10-06T14:28:05.746Z,18.55
2017-10-06T14:29:06.390Z,19.33
2017-10-06T14:30:07.027Z,19.02
2017-10-06T14:31:07.668Z,18.28
2017-10-06T14:32:08.307Z,18.04
2017-10-06T14:33:08.969Z,18.55
2017-10-06T14:34:09.587Z,18.19
2017-10-06T14:35:10.228Z,18.05
2017-10-06T14:36:10.862Z,17.46
2017-10-06T14:37:11.499Z,17.30
2017-10-06T14:38:12.156Z,17.46
2017-10-06T14:39:12.798Z,17.51
2017-10-06T14:40:13.436Z,17.36
2017-10-06T14:41:14.083Z,17.52
2017-10-06T14:42:14.718Z,17.76
2017-10-06T14:43:16.020Z,17.79
2017-10-06T14:44:16.658Z,17.41
2017-10-06T14:45:17.299Z,17.02
2017-10-06T14:46:17.930Z,16.36
2017-10-06T14:47:18.564Z,16.21
2017-10-06T14:48:19.206Z,15.82
2017-10-06T14:49:19.839Z,15.82
2017-10-06T14:50:20.473Z,15.44
2017-10-06T14:51:21.103Z,14.78
2017-10-06T14:52:21.736Z,14.81
2017-10-06T14:53:22.685Z,14.84
2017-10-06T14:54:23.318Z,14.68
2017-10-06T14:55:23.951Z,14.60
2017-10-06T14:56:24.583Z,14.51
2017-10-06T14:57:25.215Z,14.65
2017-10-06T14:58:25.850Z,14.88
2017-10-06T14:59:26.484Z,14.89
2017-10-06T15:00:27.128Z,15.03
2017-10-06T15:01:27.769Z,14.53
2017-10-06T15:02:28.403Z,14.45
2017-10-06T15:03:29.037Z,14.51
2017-10-06T15:04:29.671Z,14.45
